Time;durP1;ratioP1;P1;durP2;ratioP2;P2;SDS_P1;SDS_P2;PMS_P1;PMS_P2;Temp;Humidity;BMP_temperature;BMP_pressure;BME280_temperature;BME280_humidity;BME280_pressure;Samples;Min_cycle;Max_cycle;Signal;HPM_P1;HPM_P2
2023/04/10 00:01:37;;;;;;;63.33;48.58;;;7.30;99.90;;;;;;6124149;23;20096;-81
2023/04/10 00:04:03;;;;;;;62.63;48.28;;;7.40;99.90;;;;;;6123104;23;20037;-81
2023/04/10 00:06:30;;;;;;;66.55;50.53;;;7.40;99.90;;;;;;6122515;23;20014;-81
2023/04/10 00:08:56;;;;;;;62.08;47.35;;;7.40;99.90;;;;;;6124617;23;20014;-81
2023/04/10 00:11:23;;;;;;;62.13;49.88;;;7.30;99.90;;;;;;6123866;23;20085;-81
2023/04/10 00:13:48;;;;;;;64.30;49.15;;;7.30;99.90;;;;;;6124433;23;20403;-81
2023/04/10 00:16:14;;;;;;;60.05;48.55;;;7.30;99.90;;;;;;6123018;23;20017;-81
2023/04/10 00:18:40;;;;;;;59.22;47.40;;;7.20;99.90;;;;;;6124779;23;20015;-81
2023/04/10 00:21:05;;;;;;;59.97;46.75;;;7.30;99.90;;;;;;6123465;23;20081;-81
2023/04/10 00:23:33;;;;;;;56.20;45.92;;;7.30;99.90;;;;;;6123019;23;20024;-81
2023/04/10 00:25:59;;;;;;;60.25;46.85;;;7.30;99.90;;;;;;6125116;23;20013;-81
2023/04/10 00:28:25;;;;;;;58.20;46.33;;;7.30;99.90;;;;;;6124814;23;20307;-82
2023/04/10 00:30:51;;;;;;;57.70;47.22;;;7.20;99.90;;;;;;6122751;23;20020;-82
2023/04/10 00:33:16;;;;;;;56.28;45.53;;;7.20;99.90;;;;;;6124239;23;20017;-83
2023/04/10 00:35:42;;;;;;;59.38;48.65;;;7.20;99.90;;;;;;6124282;23;20445;-82
2023/04/10 00:38:07;;;;;;;55.88;45.88;;;7.20;99.90;;;;;;6097201;23;20041;-82
2023/04/10 00:40:33;;;;;;;59.20;48.17;;;7.20;99.90;;;;;;6122256;23;20286;-83
2023/04/10 00:42:59;;;;;;;58.92;46.75;;;7.10;99.90;;;;;;6122041;23;20014;-82
2023/04/10 00:45:25;;;;;;;59.75;48.50;;;7.10;99.90;;;;;;6124183;23;20025;-82
2023/04/10 00:47:51;;;;;;;61.90;48.53;;;7.10;99.90;;;;;;6122474;23;20030;-82
2023/04/10 00:50:18;;;;;;;59.08;48.72;;;7.30;99.90;;;;;;6123708;23;20125;-82
2023/04/10 00:52:44;;;;;;;60.08;48.65;;;7.10;99.90;;;;;;6121207;23;20021;-82
2023/04/10 00:55:10;;;;;;;62.38;48.90;;;7.10;99.90;;;;;;6152935;23;20089;-82
2023/04/10 00:57:37;;;;;;;61.28;49.55;;;7.30;99.90;;;;;;6153375;23;20059;-81
2023/04/10 01:00:03;;;;;;;63.47;50.58;;;7.00;99.90;;;;;;6126644;23;20020;-80
2023/04/10 01:02:30;;;;;;;67.68;51.55;;;7.00;99.90;;;;;;6126881;23;20085;-80
2023/04/10 01:04:57;;;;;;;60.40;49.13;;;7.00;99.90;;;;;;6153388;23;20021;-82
2023/04/10 01:08:10;;;;;;;65.97;51.50;;;6.90;99.90;;;;;;6152879;23;20020;-80
2023/04/10 01:11:00;;;;;;;60.83;49.47;;;7.00;99.90;;;;;;5982038;23;20090;-82
2023/04/10 01:13:33;;;;;;;61.35;49.72;;;6.90;99.90;;;;;;6005836;23;20019;-82
2023/04/10 01:16:12;;;;;;;63.55;51.75;;;6.90;99.90;;;;;;5982617;23;20051;-81
2023/04/10 01:18:45;;;;;;;63.25;51.25;;;6.90;99.90;;;;;;6006739;23;20019;-81
2023/04/10 01:21:13;;;;;;;63.92;51.42;;;6.90;99.90;;;;;;6006733;23;20012;-81
2023/04/10 01:24:00;;;;;;;66.93;52.95;;;6.80;99.90;;;;;;6005247;23;20019;-81
2023/04/10 01:27:01;;;;;;;62.88;52.45;;;6.80;99.90;;;;;;6005932;23;20386;-82
2023/04/10 01:29:29;;;;;;;65.15;53.20;;;6.80;99.90;;;;;;6005536;23;20086;-82
2023/04/10 01:32:02;;;;;;;67.22;53.10;;;6.80;99.90;;;;;;5959051;23;20115;-81
2023/04/10 01:35:01;;;;;;;67.32;53.45;;;6.70;99.90;;;;;;5982122;23;20080;-82
2023/04/10 01:37:29;;;;;;;68.88;54.67;;;6.70;99.90;;;;;;5989313;23;20142;-82
2023/04/10 01:40:01;;;;;;;70.25;54.08;;;6.70;99.90;;;;;;6005691;23;20392;-81
2023/04/10 01:42:31;;;;;;;69.35;55.88;;;6.70;99.90;;;;;;6120518;23;20025;-82
2023/04/10 01:44:58;;;;;;;68.35;54.55;;;6.60;99.90;;;;;;6127173;23;20021;-82
2023/04/10 01:47:25;;;;;;;67.50;53.42;;;6.60;99.90;;;;;;6153670;23;20013;-82
2023/04/10 01:49:52;;;;;;;65.68;52.58;;;6.60;99.90;;;;;;6153255;23;20076;-82
2023/04/10 01:52:20;;;;;;;70.07;55.60;;;6.60;99.90;;;;;;6152449;23;20071;-82
2023/04/10 01:54:49;;;;;;;68.53;54.63;;;6.60;99.90;;;;;;6152784;23;20021;-81
2023/04/10 01:57:16;;;;;;;70.22;54.92;;;6.60;99.90;;;;;;6126921;23;20077;-82
2023/04/10 01:59:42;;;;;;;66.57;54.90;;;6.80;99.90;;;;;;6153514;23;20014;-82
2023/04/10 02:02:10;;;;;;;67.55;53.75;;;6.60;99.90;;;;;;6127271;23;20060;-82
2023/04/10 02:04:36;;;;;;;71.90;54.50;;;6.60;99.90;;;;;;6129136;23;20344;-82
2023/04/10 02:07:21;;;;;;;69.22;54.20;;;6.60;99.90;;;;;;6128100;23;20045;-82
2023/04/10 02:10:09;;;;;;;66.90;53.33;;;6.60;99.90;;;;;;6129645;23;20009;-81
2023/04/10 02:12:47;;;;;;;71.50;54.58;;;6.50;99.90;;;;;;6154933;23;20080;-80
2023/04/10 02:15:18;;;;;;;72.88;55.55;;;6.50;99.90;;;;;;6154857;23;20010;-81
2023/04/10 02:17:44;;;;;;;68.00;54.10;;;6.50;99.90;;;;;;6154996;23;20036;-81
2023/04/10 02:20:10;;;;;;;68.95;53.97;;;6.50;99.90;;;;;;6154054;23;20010;-81
2023/04/10 02:22:36;;;;;;;70.63;53.80;;;6.50;99.90;;;;;;6154829;23;20013;-81
2023/04/10 02:25:04;;;;;;;69.68;54.17;;;6.60;99.90;;;;;;6128495;23;20029;-81
2023/04/10 02:27:34;;;;;;;65.05;52.08;;;6.50;99.90;;;;;;6154689;23;20159;-82
2023/04/10 02:30:04;;;;;;;67.10;53.65;;;6.50;99.90;;;;;;6154255;23;20013;-81
2023/04/10 02:32:31;;;;;;;72.05;54.33;;;6.50;99.90;;;;;;6154401;23;20021;-81
2023/04/10 02:34:57;;;;;;;71.40;55.20;;;6.50;99.90;;;;;;6154087;23;20014;-81
2023/04/10 02:37:23;;;;;;;65.72;52.17;;;6.60;99.90;;;;;;6128069;23;20322;-81
2023/04/10 02:39:48;;;;;;;67.07;52.22;;;6.50;99.90;;;;;;6128024;23;20095;-81
2023/04/10 02:42:14;;;;;;;65.15;51.58;;;6.50;99.90;;;;;;6128062;23;20140;-82
2023/04/10 02:44:41;;;;;;;67.05;51.63;;;6.50;99.90;;;;;;6127962;23;20441;-80
2023/04/10 02:47:06;;;;;;;61.92;50.75;;;6.70;99.90;;;;;;6154692;23;20017;-82
2023/04/10 02:49:36;;;;;;;66.03;50.17;;;6.70;99.90;;;;;;6154134;23;20017;-82
2023/04/10 02:52:01;;;;;;;64.50;51.47;;;6.70;99.90;;;;;;6128034;23;20022;-82
2023/04/10 02:54:27;;;;;;;70.78;50.88;;;6.70;99.90;;;;;;6154179;23;20052;-82
2023/04/10 02:56:53;;;;;;;66.45;51.38;;;6.70;99.90;;;;;;6128150;23;20020;-82
2023/04/10 02:59:19;;;;;;;62.58;48.92;;;6.70;99.90;;;;;;6155079;23;20014;-82
2023/04/10 03:01:46;;;;;;;63.67;49.92;;;6.70;99.90;;;;;;6128590;23;20449;-82
2023/04/10 03:04:11;;;;;;;60.80;49.05;;;6.70;99.90;;;;;;6153871;23;20048;-82
2023/04/10 03:06:37;;;;;;;61.60;49.90;;;6.70;99.90;;;;;;6154245;23;20018;-82
2023/04/10 03:09:03;;;;;;;61.83;49.55;;;6.70;99.90;;;;;;6127692;23;20017;-81
2023/04/10 03:11:29;;;;;;;62.00;49.75;;;6.60;99.90;;;;;;6127842;23;20466;-81
2023/04/10 03:13:57;;;;;;;62.22;50.65;;;6.60;99.90;;;;;;6154046;23;20025;-81
2023/04/10 03:16:22;;;;;;;63.00;50.60;;;6.60;99.90;;;;;;6154594;23;20017;-82
2023/04/10 03:18:48;;;;;;;62.28;50.45;;;6.50;99.90;;;;;;6127739;23;20018;-81
2023/04/10 03:21:14;;;;;;;65.60;51.70;;;6.50;99.90;;;;;;6128339;23;20008;-81
2023/04/10 03:23:40;;;;;;;63.85;50.88;;;6.50;99.90;;;;;;6127693;23;20028;-81
2023/04/10 03:26:06;;;;;;;62.38;49.45;;;6.50;99.90;;;;;;6127754;23;20024;-81
2023/04/10 03:28:32;;;;;;;61.33;49.25;;;6.40;99.90;;;;;;6154340;23;20013;-81
2023/04/10 03:30:58;;;;;;;63.10;52.40;;;6.40;99.90;;;;;;6127741;23;20345;-81
2023/04/10 03:33:23;;;;;;;67.88;52.33;;;6.30;99.90;;;;;;6127351;23;20089;-82
2023/04/10 03:35:49;;;;;;;64.25;50.55;;;6.30;99.90;;;;;;6127653;23;20436;-81
2023/04/10 03:38:15;;;;;;;67.50;53.17;;;6.30;99.90;;;;;;6127787;23;20010;-83
2023/04/10 03:40:40;;;;;;;64.10;50.83;;;6.20;99.90;;;;;;6154809;23;20014;-82
2023/04/10 03:43:06;;;;;;;64.63;51.72;;;6.20;99.90;;;;;;6127911;23;20028;-81
2023/04/10 03:45:32;;;;;;;63.38;50.95;;;6.10;99.90;;;;;;6154525;23;20014;-81
2023/04/10 03:47:58;;;;;;;63.60;51.33;;;6.10;99.90;;;;;;6127244;23;20020;-81
2023/04/10 03:50:23;;;;;;;64.15;53.88;;;6.00;99.90;;;;;;6127987;23;20024;-81
2023/04/10 03:52:50;;;;;;;63.53;51.10;;;6.00;99.90;;;;;;6127560;23;20463;-82
2023/04/10 03:55:19;;;;;;;65.65;52.33;;;6.00;99.90;;;;;;6102864;23;20362;-81
2023/04/10 03:57:46;;;;;;;66.43;53.50;;;5.90;99.90;;;;;;6127682;23;20017;-81
2023/04/10 04:00:13;;;;;;;67.55;54.75;;;5.90;99.90;;;;;;6102701;23;20032;-82
2023/04/10 04:02:39;;;;;;;71.47;54.40;;;5.90;99.90;;;;;;6153436;23;20432;-81
2023/04/10 04:05:04;;;;;;;71.57;53.78;;;5.90;99.90;;;;;;6127156;23;20092;-81
2023/04/10 04:07:30;;;;;;;67.75;54.10;;;5.80;99.90;;;;;;6153623;23;20009;-82
2023/04/10 04:09:56;;;;;;;70.93;54.63;;;6.20;99.90;;;;;;6127228;23;20034;-81
2023/04/10 04:12:21;;;;;;;65.15;52.20;;;5.80;99.90;;;;;;6126996;23;20092;-81
2023/04/10 04:14:47;;;;;;;68.70;54.20;;;5.90;99.90;;;;;;6127105;23;20444;-81
2023/04/10 04:17:13;;;;;;;65.45;53.58;;;5.80;99.90;;;;;;6153186;23;20010;-81
2023/04/10 04:19:38;;;;;;;70.03;56.00;;;5.80;99.90;;;;;;6153563;23;20013;-81
2023/04/10 04:22:04;;;;;;;67.30;54.85;;;5.80;99.90;;;;;;6127191;23;20020;-81
2023/04/10 04:24:30;;;;;;;68.93;55.17;;;5.80;99.90;;;;;;6126883;23;20013;-82
2023/04/10 04:26:56;;;;;;;72.15;56.33;;;5.80;99.90;;;;;;6126696;23;20064;-81
2023/04/10 04:29:24;;;;;;;68.30;56.35;;;5.90;99.90;;;;;;6153332;23;20344;-82
2023/04/10 04:31:50;;;;;;;72.28;56.55;;;5.90;99.90;;;;;;6126399;23;20040;-80
2023/04/10 04:34:15;;;;;;;67.32;54.55;;;6.00;99.90;;;;;;6127165;23;20089;-81
2023/04/10 04:36:41;;;;;;;68.57;55.15;;;6.10;99.90;;;;;;6153295;23;20014;-81
2023/04/10 04:39:07;;;;;;;67.50;53.92;;;6.10;99.90;;;;;;6154273;23;20081;-80
2023/04/10 04:41:32;;;;;;;68.53;54.33;;;6.20;99.90;;;;;;6154215;23;20016;-81
2023/04/10 04:44:00;;;;;;;71.68;55.15;;;6.30;99.90;;;;;;6127072;23;20071;-81
2023/04/10 04:46:26;;;;;;;69.50;54.20;;;6.40;99.90;;;;;;6126284;23;20027;-82
2023/04/10 04:48:51;;;;;;;73.00;56.55;;;6.50;99.90;;;;;;6127133;23;20465;-82
2023/04/10 04:51:17;;;;;;;68.50;53.45;;;6.50;99.90;;;;;;6126815;23;20017;-82
2023/04/10 04:53:43;;;;;;;73.32;56.90;;;6.60;99.90;;;;;;6121670;23;20021;-82
2023/04/10 04:56:08;;;;;;;69.43;55.60;;;6.70;99.90;;;;;;6123682;23;20014;-82
2023/04/10 04:58:34;;;;;;;72.30;56.55;;;6.70;99.90;;;;;;6123496;23;20014;-82
2023/04/10 05:00:59;;;;;;;68.30;55.60;;;6.70;99.90;;;;;;6121447;23;20018;-82
2023/04/10 05:03:27;;;;;;;73.00;57.90;;;6.80;99.90;;;;;;6123994;23;20017;-81
2023/04/10 05:05:55;;;;;;;66.88;55.50;;;6.80;99.90;;;;;;6121843;23;20015;-82
2023/04/10 05:08:21;;;;;;;72.10;55.45;;;6.80;99.90;;;;;;6122151;23;20105;-82
2023/04/10 05:10:47;;;;;;;77.63;56.72;;;6.90;99.90;;;;;;6124027;23;20018;-81
2023/04/10 05:13:14;;;;;;;74.03;56.38;;;7.00;99.90;;;;;;6121840;23;20096;-81
2023/04/10 05:15:40;;;;;;;71.95;56.38;;;7.00;99.90;;;;;;6096945;23;20085;-82
2023/04/10 05:18:05;;;;;;;71.07;56.03;;;7.10;99.90;;;;;;6124071;23;20363;-82
2023/04/10 05:20:34;;;;;;;70.45;56.60;;;7.10;99.90;;;;;;6124069;23;20006;-82
2023/04/10 05:23:00;;;;;;;67.93;55.20;;;7.20;99.90;;;;;;6124152;23;20018;-82
2023/04/10 05:25:26;;;;;;;71.43;54.92;;;7.20;99.90;;;;;;6122673;23;20192;-82
2023/04/10 05:27:52;;;;;;;69.63;56.00;;;7.20;99.90;;;;;;6123368;23;20457;-81
2023/04/10 05:30:17;;;;;;;72.90;57.05;;;7.30;99.90;;;;;;6123656;23;20026;-81
2023/04/10 05:32:44;;;;;;;70.70;56.70;;;7.30;99.90;;;;;;6122010;23;20089;-81
2023/04/10 05:35:10;;;;;;;67.72;54.88;;;7.40;99.90;;;;;;6121721;23;20151;-81
2023/04/10 05:37:36;;;;;;;67.35;55.25;;;7.40;99.90;;;;;;6122654;23;20070;-81
2023/04/10 05:40:02;;;;;;;67.15;54.45;;;7.50;99.90;;;;;;6125048;23;20092;-81
2023/04/10 05:42:27;;;;;;;64.05;52.88;;;7.50;99.90;;;;;;6126742;23;20010;-81
2023/04/10 05:44:53;;;;;;;67.25;54.20;;;7.90;99.90;;;;;;6124297;23;20396;-81
2023/04/10 05:47:19;;;;;;;65.72;53.20;;;7.60;99.90;;;;;;6126307;23;20132;-81
2023/04/10 05:49:44;;;;;;;65.72;54.30;;;7.70;99.90;;;;;;6125055;23;20022;-81
2023/04/10 05:52:10;;;;;;;66.65;53.35;;;7.80;99.90;;;;;;6126495;23;20014;-81
2023/04/10 05:54:35;;;;;;;64.80;53.63;;;7.90;99.90;;;;;;6124455;23;20085;-81
2023/04/10 05:57:01;;;;;;;68.85;53.40;;;8.00;99.90;;;;;;6124901;23;20014;-81
2023/04/10 05:59:27;;;;;;;65.63;51.22;;;8.00;99.90;;;;;;6124528;23;20093;-82
2023/04/10 06:01:52;;;;;;;68.30;52.25;;;8.10;99.90;;;;;;6126944;23;20014;-81
2023/04/10 06:04:20;;;;;;;62.90;51.67;;;8.20;99.90;;;;;;6125266;23;20086;-82
2023/04/10 06:06:46;;;;;;;65.03;51.00;;;8.70;99.90;;;;;;6125379;23;20018;-81
2023/04/10 06:09:11;;;;;;;61.90;51.88;;;8.50;99.90;;;;;;6126952;23;20089;-81
2023/04/10 06:11:37;;;;;;;61.90;51.10;;;8.60;99.90;;;;;;6125811;23;20014;-81
2023/04/10 06:14:02;;;;;;;61.00;50.05;;;8.90;99.90;;;;;;6125255;23;20084;-82
2023/04/10 06:16:28;;;;;;;62.88;50.45;;;9.60;99.90;;;;;;6125545;23;20029;-81
2023/04/10 06:18:54;;;;;;;61.33;49.65;;;9.70;99.90;;;;;;6125581;23;20053;-81
2023/04/10 06:21:19;;;;;;;58.15;48.45;;;10.10;99.90;;;;;;6125801;23;20429;-80
2023/04/10 06:23:45;;;;;;;60.53;50.55;;;10.40;99.90;;;;;;6126961;23;20506;-82
2023/04/10 06:26:11;;;;;;;60.60;50.47;;;10.70;99.90;;;;;;6126211;23;20157;-81
2023/04/10 06:28:37;;;;;;;63.63;49.78;;;10.50;99.90;;;;;;6126660;23;20069;-81
2023/04/10 06:31:06;;;;;;;58.72;48.05;;;10.50;99.90;;;;;;6126377;23;20041;-80
2023/04/10 06:33:34;;;;;;;61.83;49.95;;;10.50;99.90;;;;;;6126455;23;20084;-81
2023/04/10 06:36:00;;;;;;;55.25;48.15;;;10.40;99.90;;;;;;6122549;23;20018;-80
2023/04/10 06:38:26;;;;;;;56.90;48.95;;;10.30;99.90;;;;;;6099966;23;20480;-79
2023/04/10 06:40:51;;;;;;;58.90;47.80;;;10.70;99.90;;;;;;6124441;23;20086;-80
2023/04/10 06:43:17;;;;;;;60.95;50.25;;;10.90;99.90;;;;;;6100010;23;20014;-79
2023/04/10 06:45:42;;;;;;;58.60;46.92;;;10.90;99.90;;;;;;6124479;23;20020;-79
2023/04/10 06:48:08;;;;;;;60.30;47.72;;;10.80;99.90;;;;;;6124661;23;20581;-79
2023/04/10 06:50:34;;;;;;;57.90;47.47;;;10.60;99.90;;;;;;6098425;23;20021;-79
2023/04/10 06:52:59;;;;;;;56.40;46.78;;;10.60;99.90;;;;;;6123564;23;20104;-79
2023/04/10 06:55:26;;;;;;;58.75;48.25;;;10.70;99.90;;;;;;6122413;23;20022;-80
2023/04/10 06:57:51;;;;;;;56.05;46.45;;;10.50;99.90;;;;;;6123283;23;20021;-79
2023/04/10 07:00:18;;;;;;;56.72;47.05;;;10.60;99.90;;;;;;6098370;23;20096;-79
2023/04/10 07:02:44;;;;;;;58.50;47.88;;;10.70;99.90;;;;;;6125028;23;20045;-80
2023/04/10 07:05:10;;;;;;;54.65;44.63;;;10.60;99.90;;;;;;6123463;23;20349;-80
2023/04/10 07:07:36;;;;;;;56.35;45.65;;;10.80;99.90;;;;;;6125125;23;20017;-79
2023/04/10 07:10:01;;;;;;;58.75;47.72;;;10.90;99.90;;;;;;6098135;23;20025;-81
2023/04/10 07:12:27;;;;;;;55.78;45.08;;;10.90;99.90;;;;;;6122562;23;20014;-80
2023/04/10 07:14:53;;;;;;;55.28;45.60;;;10.70;99.90;;;;;;6098090;23;20036;-80
2023/04/10 07:17:19;;;;;;;55.45;45.28;;;10.70;99.90;;;;;;6122973;23;20498;-81
2023/04/10 07:19:44;;;;;;;55.22;44.08;;;10.70;99.90;;;;;;6124987;23;20041;-80
2023/04/10 07:22:10;;;;;;;56.42;44.95;;;10.70;99.90;;;;;;6124557;23;20013;-81
2023/04/10 07:24:36;;;;;;;50.35;41.42;;;10.60;99.90;;;;;;6098137;23;20018;-82
2023/04/10 07:27:02;;;;;;;53.90;43.78;;;10.80;99.90;;;;;;6122742;23;20122;-81
2023/04/10 07:29:28;;;;;;;54.70;43.15;;;10.80;99.90;;;;;;6123266;23;20286;-81
2023/04/10 07:31:54;;;;;;;54.33;41.75;;;11.00;99.90;;;;;;6124487;23;20016;-80
2023/04/10 07:34:19;;;;;;;51.58;41.50;;;11.00;99.90;;;;;;6123197;23;20025;-81
2023/04/10 07:36:46;;;;;;;48.72;40.03;;;11.00;99.90;;;;;;6125034;23;20010;-80
2023/04/10 07:39:11;;;;;;;49.10;39.78;;;11.10;99.90;;;;;;6122635;23;20047;-80
2023/04/10 07:41:37;;;;;;;47.83;39.25;;;11.10;99.90;;;;;;6124321;23;20162;-80
2023/04/10 07:44:03;;;;;;;45.53;37.55;;;11.20;99.90;;;;;;6123055;23;20021;-81
2023/04/10 07:46:28;;;;;;;45.75;38.17;;;11.30;99.90;;;;;;6123041;23;20018;-80
2023/04/10 07:48:54;;;;;;;48.53;38.30;;;11.50;99.90;;;;;;6099106;23;20053;-81
2023/04/10 07:51:20;;;;;;;47.17;37.67;;;11.60;99.90;;;;;;6122890;23;20069;-81
2023/04/10 07:53:46;;;;;;;44.75;37.55;;;11.60;99.90;;;;;;6121870;23;20485;-81
2023/04/10 07:56:19;;;;;;;45.92;36.05;;;11.70;99.90;;;;;;6122759;23;20052;-81
2023/04/10 07:58:45;;;;;;;43.85;36.55;;;11.80;99.90;;;;;;6124594;23;20088;-80
2023/04/10 08:01:11;;;;;;;42.28;34.22;;;11.90;99.90;;;;;;6123171;23;20094;-81
2023/04/10 08:03:38;;;;;;;43.22;35.20;;;12.00;99.90;;;;;;6122147;23;20045;-80
2023/04/10 08:06:04;;;;;;;44.05;35.65;;;12.10;99.90;;;;;;6122767;23;20054;-82
2023/04/10 08:08:30;;;;;;;40.47;33.85;;;12.20;99.90;;;;;;6123758;23;20014;-80
2023/04/10 08:10:55;;;;;;;42.33;34.30;;;12.30;99.90;;;;;;6122415;23;20346;-80
2023/04/10 08:13:21;;;;;;;42.83;34.55;;;12.50;99.90;;;;;;6124046;23;20045;-78
2023/04/10 08:15:46;;;;;;;42.15;33.15;;;12.60;99.90;;;;;;6124213;23;20017;-80
2023/04/10 08:18:12;;;;;;;38.80;33.15;;;12.70;99.90;;;;;;6122780;23;20156;-86
2023/04/10 08:20:37;;;;;;;38.58;31.50;;;12.90;99.90;;;;;;6098560;23;20006;-80
2023/04/10 08:23:03;;;;;;;39.22;31.83;;;12.90;99.90;;;;;;6122204;23;20021;-80
2023/04/10 08:25:30;;;;;;;38.97;30.77;;;13.00;99.90;;;;;;6122805;23;20010;-80
2023/04/10 08:27:55;;;;;;;36.95;30.10;;;13.20;99.90;;;;;;6097289;23;20081;-80
2023/04/10 08:30:21;;;;;;;37.38;30.85;;;13.30;99.90;;;;;;6122984;23;20018;-80
2023/04/10 08:32:46;;;;;;;34.70;28.83;;;13.30;99.90;;;;;;6122071;23;20017;-80
2023/04/10 08:35:12;;;;;;;36.92;30.83;;;13.40;99.90;;;;;;6122891;23;20315;-80
2023/04/10 08:37:37;;;;;;;33.90;28.50;;;13.50;99.90;;;;;;6120422;23;20495;-80
2023/04/10 08:40:03;;;;;;;35.35;28.45;;;13.70;99.90;;;;;;6122262;23;20021;-80
2023/04/10 08:42:30;;;;;;;33.72;28.83;;;13.80;99.90;;;;;;6096144;23;20076;-80
2023/04/10 08:44:55;;;;;;;34.90;28.55;;;14.00;99.90;;;;;;6123432;23;20512;-80
2023/04/10 08:47:26;;;;;;;33.42;28.10;;;14.30;99.90;;;;;;6124415;23;20040;-80
2023/04/10 08:49:53;;;;;;;34.47;27.90;;;14.40;99.90;;;;;;6124181;23;20426;-80
2023/04/10 08:52:24;;;;;;;34.55;26.58;;;14.60;99.90;;;;;;6121353;23;20362;-81
2023/04/10 08:54:53;;;;;;;33.55;26.95;;;14.80;99.90;;;;;;6121509;23;20511;-80
2023/04/10 08:57:21;;;;;;;32.05;25.30;;;14.80;99.90;;;;;;6123743;23;20445;-80
2023/04/10 08:59:47;;;;;;;32.92;25.80;;;14.70;99.90;;;;;;6123515;23;20029;-80
2023/04/10 09:02:13;;;;;;;34.42;25.40;;;14.40;99.90;;;;;;6121847;23;20026;-80
2023/04/10 09:04:42;;;;;;;28.92;24.90;;;14.40;99.90;;;;;;6124061;23;20014;-80
2023/04/10 09:07:07;;;;;;;28.73;23.88;;;14.60;99.90;;;;;;6123254;23;20013;-80
2023/04/10 09:09:33;;;;;;;26.48;22.65;;;14.70;99.90;;;;;;6124011;23;20437;-80
2023/04/10 09:12:01;;;;;;;29.17;24.48;;;14.60;99.70;;;;;;6121434;23;20025;-80
2023/04/10 09:14:34;;;;;;;28.92;23.95;;;14.70;99.90;;;;;;6123875;23;20044;-81
2023/04/10 09:17:15;;;;;;;42.28;23.48;;;14.70;99.90;;;;;;6121981;23;20021;-80
2023/04/10 09:19:42;;;;;;;26.95;22.42;;;15.00;99.90;;;;;;6097829;23;20330;-80
2023/04/10 09:22:08;;;;;;;27.27;21.52;;;15.20;99.90;;;;;;6123153;23;20014;-80
2023/04/10 09:24:42;;;;;;;25.50;21.80;;;15.50;99.90;;;;;;6121956;23;20028;-80
2023/04/10 09:27:08;;;;;;;26.75;21.80;;;15.90;99.60;;;;;;6122083;23;20026;-81
2023/04/10 09:29:47;;;;;;;24.95;21.13;;;16.30;98.60;;;;;;6122032;23;20022;-80
2023/04/10 09:32:33;;;;;;;25.85;21.17;;;16.50;97.90;;;;;;6123698;23;20010;-81
2023/04/10 09:34:59;;;;;;;26.73;20.90;;;16.60;98.10;;;;;;6121094;23;20149;-81
2023/04/10 09:37:31;;;;;;;24.30;19.27;;;16.40;97.50;;;;;;6123840;23;20355;-80
2023/04/10 09:39:56;;;;;;;23.13;19.85;;;16.30;97.20;;;;;;6121587;23;20445;-81
2023/04/10 09:42:35;;;;;;;24.20;19.27;;;16.30;98.10;;;;;;6123454;23;20025;-80
2023/04/10 09:45:02;;;;;;;21.45;18.88;;;16.30;98.10;;;;;;6123795;23;20337;-80
2023/04/10 09:47:28;;;;;;;24.45;20.42;;;16.30;98.40;;;;;;6121553;23;20113;-80
2023/04/10 09:49:56;;;;;;;23.45;19.50;;;16.40;98.40;;;;;;6123198;23;20014;-80
2023/04/10 09:52:35;;;;;;;23.30;19.45;;;16.50;98.30;;;;;;6097744;23;20050;-80
2023/04/10 09:55:07;;;;;;;25.15;18.92;;;16.40;98.20;;;;;;6146903;23;20389;-80
2023/04/10 09:57:34;;;;;;;22.40;18.63;;;16.20;98.50;;;;;;6125818;23;20365;-80
2023/04/10 10:00:12;;;;;;;23.13;19.25;;;16.40;99.10;;;;;;6125536;23;20017;-80
2023/04/10 10:02:39;;;;;;;23.90;19.10;;;16.30;97.40;;;;;;6151767;23;20084;-79
2023/04/10 10:05:06;;;;;;;23.17;19.08;;;16.30;96.30;;;;;;6124662;23;20017;-80
2023/04/10 10:07:32;;;;;;;23.63;18.60;;;16.40;98.00;;;;;;6151712;23;20485;-80
2023/04/10 10:09:59;;;;;;;25.83;19.10;;;16.30;97.60;;;;;;6125098;23;20164;-79
2023/04/10 10:12:47;;;;;;;22.80;18.45;;;16.40;97.30;;;;;;6151462;23;20010;-79
2023/04/10 10:15:19;;;;;;;21.42;16.55;;;16.40;97.00;;;;;;6125046;23;20037;-80
2023/04/10 10:18:24;;;;;;;20.65;17.10;;;16.60;96.50;;;;;;6125482;23;20005;-79
2023/04/10 10:20:49;;;;;;;22.27;18.20;;;16.40;96.70;;;;;;6151975;23;20014;-79
2023/04/10 10:23:18;;;;;;;18.55;16.33;;;16.40;97.60;;;;;;6151716;23;20056;-79
2023/04/10 10:25:45;;;;;;;19.83;16.27;;;16.50;97.50;;;;;;6152976;23;20045;-79
2023/04/10 10:28:12;;;;;;;20.05;16.55;;;16.50;96.80;;;;;;6126671;23;20114;-80
2023/04/10 10:30:39;;;;;;;20.73;17.30;;;16.60;96.90;;;;;;6103997;23;20381;-79
2023/04/10 10:33:06;;;;;;;18.27;15.73;;;16.80;97.90;;;;;;6125764;23;20461;-80
2023/04/10 10:35:35;;;;;;;17.08;14.07;;;16.90;97.20;;;;;;6102101;23;20014;-80
2023/04/10 10:38:03;;;;;;;15.75;13.50;;;16.90;95.50;;;;;;6126207;23;20021;-80
2023/04/10 10:40:40;;;;;;;14.18;12.07;;;16.90;94.90;;;;;;6126283;23;20434;-79
2023/04/10 10:43:45;;;;;;;13.10;10.80;;;16.90;95.20;;;;;;6152460;23;20084;-79
2023/04/10 10:46:36;;;;;;;13.82;12.00;;;16.90;94.90;;;;;;6151539;23;20013;-80
2023/04/10 10:49:02;;;;;;;12.88;10.80;;;16.80;96.00;;;;;;6125953;23;20029;-79
2023/04/10 10:51:43;;;;;;;12.57;10.43;;;16.90;95.00;;;;;;6126915;23;20013;-79
2023/04/10 10:54:28;;;;;;;12.13;10.47;;;16.90;96.80;;;;;;6082213;23;1056217;-80
2023/04/10 10:56:53;;;;;;;11.68;10.10;;;16.90;94.80;;;;;;6127742;23;20332;-80
2023/04/10 10:59:45;;;;;;;14.90;10.32;;;16.90;95.90;;;;;;6154524;23;20397;-80
2023/04/10 11:02:18;;;;;;;14.23;10.82;;;16.90;95.60;;;;;;6153446;23;20013;-79
2023/04/10 11:04:45;;;;;;;11.38;9.52;;;17.00;95.80;;;;;;6128091;23;20376;-79
2023/04/10 11:07:12;;;;;;;13.75;10.15;;;16.90;95.30;;;;;;6154348;23;20014;-80
2023/04/10 11:09:49;;;;;;;12.02;10.52;;;16.80;96.00;;;;;;6127896;23;20351;-79
2023/04/10 11:12:18;;;;;;;11.38;10.18;;;16.90;95.80;;;;;;6154108;23;20341;-79
2023/04/10 11:14:55;;;;;;;13.80;9.98;;;17.00;95.00;;;;;;6154482;23;20010;-80
2023/04/10 11:17:49;;;;;;;10.68;9.57;;;16.80;95.00;;;;;;6127745;23;20072;-79
2023/04/10 11:20:16;;;;;;;11.27;9.30;;;16.90;95.50;;;;;;6154421;23;20016;-79
2023/04/10 11:23:11;;;;;;;10.43;8.20;;;17.10;95.40;;;;;;6127968;23;20017;-79
2023/04/10 11:25:50;;;;;;;10.90;9.00;;;17.10;95.90;;;;;;6127669;23;20028;-79
2023/04/10 11:28:31;;;;;;;9.98;8.07;;;17.00;95.50;;;;;;6127515;23;20269;-79
2023/04/10 11:31:27;;;;;;;13.18;8.40;;;17.00;95.50;;;;;;6153421;23;20014;-78
2023/04/10 11:33:53;;;;;;;10.25;8.07;;;17.10;95.50;;;;;;6123053;23;20068;-78
2023/04/10 11:36:19;;;;;;;11.30;8.30;;;17.10;96.00;;;;;;6153518;23;20017;-79
2023/04/10 11:39:04;;;;;;;9.88;7.93;;;17.10;95.70;;;;;;6127758;23;20014;-80
2023/04/10 11:41:41;;;;;;;11.13;7.38;;;17.00;94.60;;;;;;6127262;23;20029;-80
2023/04/10 11:44:31;;;;;;;8.18;6.82;;;17.10;95.60;;;;;;6127442;23;20495;-80
2023/04/10 11:46:57;;;;;;;9.70;7.30;;;17.30;96.50;;;;;;6133337;23;20021;-79
2023/04/10 11:49:30;;;;;;;9.63;6.60;;;17.30;95.60;;;;;;6154130;23;20013;-79
2023/04/10 11:51:55;;;;;;;9.95;6.82;;;17.30;95.30;;;;;;6153709;23;20144;-79
2023/04/10 11:54:23;;;;;;;9.90;7.00;;;17.30;95.40;;;;;;6122493;23;20453;-80
2023/04/10 11:57:00;;;;;;;9.00;7.28;;;17.20;95.00;;;;;;6122663;23;20504;-79
2023/04/10 11:59:26;;;;;;;8.82;7.22;;;17.30;95.50;;;;;;6124780;23;20039;-79
2023/04/10 12:01:54;;;;;;;8.73;5.97;;;17.40;95.00;;;;;;6097859;23;20238;-79
2023/04/10 12:04:21;;;;;;;6.97;5.97;;;17.30;94.70;;;;;;6124857;23;20021;-80
2023/04/10 12:06:49;;;;;;;8.63;5.70;;;17.30;94.90;;;;;;6122753;23;20021;-79
2023/04/10 12:09:17;;;;;;;6.90;5.47;;;17.30;94.80;;;;;;6122892;23;20089;-79
2023/04/10 12:11:58;;;;;;;6.65;5.45;;;17.60;96.60;;;;;;6124449;23;20013;-79
2023/04/10 12:14:31;;;;;;;6.53;5.10;;;17.80;95.40;;;;;;6121809;23;20028;-80
2023/04/10 12:16:57;;;;;;;6.68;5.18;;;17.90;94.10;;;;;;6097912;23;20491;-79
2023/04/10 12:19:23;;;;;;;6.43;5.05;;;18.00;94.50;;;;;;6122396;23;20345;-79
2023/04/10 12:21:49;;;;;;;5.68;4.90;;;18.10;95.40;;;;;;6122279;23;20013;-79
2023/04/10 12:24:43;;;;;;;7.30;5.10;;;18.20;94.50;;;;;;6122238;23;20025;-79
2023/04/10 12:27:24;;;;;;;5.97;4.40;;;18.30;94.70;;;;;;6122636;23;20017;-79
2023/04/10 12:29:51;;;;;;;8.68;4.43;;;18.60;94.20;;;;;;6097278;23;20025;-80
2023/04/10 12:32:18;;;;;;;5.85;4.80;;;18.50;93.60;;;;;;6122389;23;20323;-78
2023/04/10 12:34:50;;;;;;;6.60;4.13;;;18.50;93.80;;;;;;6124503;23;20014;-79
2023/04/10 12:37:16;;;;;;;8.13;4.73;;;18.50;93.10;;;;;;6122387;23;20112;-79
2023/04/10 12:39:41;;;;;;;5.78;4.50;;;18.50;93.40;;;;;;6122172;23;20405;-79
2023/04/10 12:42:21;;;;;;;6.13;4.25;;;18.50;93.70;;;;;;6124117;23;20014;-79